^^
Station Historical Data
Daily Summary for August 28, 2017 Units:  English    Metric   Both
« Previous Day
Next Day »
Daily Weekly Monthly Yearly Custom
  High: Low: Average:
Temperature: 73.7 °F 56.2 °F 65.4 °F
Dew Point: 59.9 °F 48.7 °F 53.8 °F
Humidity: 94% 42% 69%
Wind Speed: 5.0mph 0.0mph 0.5mph
Wind Gust: 12.0mph - -
Wind- - West
Pressure: 30.33 in 30.25 in -
Precipitation: 0.00 in    
Historical Graphs
 
 
Tabular Data for August 28, 2017
Time Temperature Dew Point Pressure Wind Wind Speed Wind Gust Humidity Rainfall Rate (Hourly) Conditions
00:00 61.3 °F 56.1 °F 30.28 in Calm     83% 0.00 in CLR
00:15 61.5 °F 55.6 °F 30.28 in Calm   1.0 mph 81% 0.00 in CLR
00:30 61.1 °F 54.9 °F 30.28 in Calm     80% 0.00 in CLR
01:00 60.7 °F 54.5 °F 30.28 in Calm     80% 0.00 in CLR
02:15 59.5 °F 55.0 °F 30.26 in Calm   1.0 mph 85% 0.00 in FEW
02:30 59.4 °F 55.2 °F 30.25 in Calm   1.0 mph 86% 0.00 in FEW
02:45 59.3 °F 55.1 °F 30.25 in Calm   1.0 mph 86% 0.00 in FEW
03:00 59.1 °F 55.2 °F 30.25 in Calm     87% 0.00 in FEW
03:15 58.9 °F 55.4 °F 30.25 in Calm     88% 0.00 in CLR
03:30 58.8 °F 55.3 °F 30.25 in Calm   1.0 mph 88% 0.00 in CLR
03:45 58.7 °F 55.2 °F 30.25 in Calm     88% 0.00 in CLR
04:00 58.5 °F 54.6 °F 30.25 in North 1.0 mph 2.0 mph 87% 0.00 in CLR
04:15 57.6 °F 54.4 °F 30.25 in Calm   2.0 mph 89% 0.00 in CLR
04:30 57.4 °F 54.5 °F 30.26 in Calm   1.0 mph 90% 0.00 in CLR
04:45 57.0 °F 54.4 °F 30.26 in Calm     91% 0.00 in CLR
05:00 56.8 °F 54.2 °F 30.27 in Calm   1.0 mph 91% 0.00 in CLR
05:15 56.8 °F 54.2 °F 30.26 in Calm   1.0 mph 91% 0.00 in CLR
05:30 56.5 °F 54.2 °F 30.26 in Calm   1.0 mph 92% 0.00 in CLR
05:45 56.5 °F 54.2 °F 30.27 in Calm   1.0 mph 92% 0.00 in CLR
06:00 56.4 °F 54.1 °F 30.27 in Calm   1.0 mph 92% 0.00 in CLR
06:15 56.3 °F 54.3 °F 30.28 in Calm   2.0 mph 93% 0.00 in CLR
06:30 56.3 °F 54.3 °F 30.29 in Calm   1.0 mph 93% 0.00 in CLR
06:45 56.4 °F 54.4 °F 30.30 in Calm   1.0 mph 93% 0.00 in CLR
07:00 56.2 °F 54.2 °F 30.31 in Calm     93% 0.00 in CLR
07:30 57.4 °F 55.7 °F 30.32 in Calm   1.0 mph 94% 0.00 in FEW
07:45 58.4 °F 56.4 °F 30.32 in Calm   1.0 mph 93% 0.00 in FEW
08:00 59.0 °F 56.4 °F 30.33 in Calm   1.0 mph 91% 0.00 in FEW
08:15 59.8 °F 56.9 °F 30.33 in Calm   3.0 mph 90% 0.00 in FEW
08:30 61.3 °F 58.1 °F 30.33 in Calm   2.0 mph 89% 0.00 in FEW
08:45 63.4 °F 58.8 °F 30.33 in NW 1.0 mph 4.0 mph 85% 0.00 in FEW
09:00 64.5 °F 59.2 °F 30.33 in North 1.0 mph 5.0 mph 83% 0.00 in FEW
09:15 65.6 °F 59.6 °F 30.33 in Calm   3.0 mph 81% 0.00 in FEW
09:30 66.6 °F 59.9 °F 30.33 in Calm   6.0 mph 79% 0.00 in FEW
09:45 67.2 °F 59.4 °F 30.33 in NNW 2.0 mph 4.0 mph 76% 0.00 in FEW
10:00 67.4 °F 59.2 °F 30.33 in North 1.0 mph 6.0 mph 75% 0.00 in FEW
10:15 67.8 °F 58.1 °F 30.32 in WNW 1.0 mph 6.0 mph 71% 0.00 in SCT
10:30 68.9 °F 57.1 °F 30.32 in Calm   6.0 mph 66% 0.00 in SCT
10:45 69.6 °F 53.7 °F 30.32 in NW 1.0 mph 12.0 mph 57% 0.00 in SCT
11:00 70.3 °F 54.8 °F 30.32 in NW 1.0 mph 8.0 mph 58% 0.00 in SCT
11:15 71.4 °F 53.9 °F 30.31 in WSW 1.0 mph 5.0 mph 54% 0.00 in SCT
11:30 71.2 °F 54.7 °F 30.31 in Calm   5.0 mph 56% 0.00 in SCT
11:45 71.8 °F 53.2 °F 30.30 in NW 2.0 mph 6.0 mph 52% 0.00 in SCT
12:00 71.9 °F 53.8 °F 30.30 in Calm   7.0 mph 53% 0.00 in SCT
12:15 71.9 °F 54.4 °F 30.30 in West 1.0 mph 4.0 mph 54% 0.00 in FEW
12:30 72.3 °F 53.1 °F 30.30 in SW 1.0 mph 6.0 mph 51% 0.00 in FEW
12:45 73.1 °F 51.6 °F 30.30 in West 2.0 mph 5.0 mph 47% 0.00 in FEW
13:00 73.5 °F 50.9 °F 30.29 in WSW 1.0 mph 6.0 mph 45% 0.00 in FEW
13:15 73.7 °F 51.6 °F 30.30 in West 1.0 mph 6.0 mph 46% 0.00 in FEW
13:30 73.2 °F 48.7 °F 30.30 in SSE 3.0 mph 8.0 mph 42% 0.00 in FEW
13:45 73.3 °F 49.4 °F 30.30 in SW 5.0 mph 12.0 mph 43% 0.00 in FEW
14:00 72.6 °F 50.0 °F 30.29 in West 2.0 mph 9.0 mph 45% 0.00 in FEW
14:15 73.4 °F 50.7 °F 30.30 in NW 2.0 mph 8.0 mph 45% 0.00 in FEW
14:30 72.6 °F 48.8 °F 30.29 in NW 2.0 mph 9.0 mph 43% 0.00 in FEW
14:45 72.9 °F 49.1 °F 30.29 in West 2.0 mph 9.0 mph 43% 0.00 in FEW
15:00 73.4 °F 50.8 °F 30.29 in NNW 1.0 mph 6.0 mph 45% 0.00 in FEW
15:15 72.9 °F 49.1 °F 30.28 in SSW 1.0 mph 6.0 mph 43% 0.00 in FEW
15:30 73.2 °F 48.7 °F 30.27 in NW 2.0 mph 6.0 mph 42% 0.00 in FEW
15:45 72.8 °F 49.0 °F 30.28 in WNW 2.0 mph 8.0 mph 43% 0.00 in FEW
16:00 73.0 °F 50.4 °F 30.28 in Calm   5.0 mph 45% 0.00 in FEW
16:15 72.9 °F 50.3 °F 30.28 in SE 2.0 mph 6.0 mph 45% 0.00 in FEW
16:30 72.9 °F 50.9 °F 30.28 in WSW 1.0 mph 7.0 mph 46% 0.00 in FEW
16:45 72.6 °F 51.2 °F 30.28 in NW 1.0 mph 7.0 mph 47% 0.00 in FEW
17:00 73.2 °F 52.9 °F 30.27 in SSW 2.0 mph 6.0 mph 49% 0.00 in FEW
17:15 72.4 °F 52.2 °F 30.27 in Calm   6.0 mph 49% 0.00 in FEW
17:30 72.9 °F 53.2 °F 30.27 in NW 1.0 mph 6.0 mph 50% 0.00 in FEW
17:45 73.4 °F 53.1 °F 30.28 in Calm   5.0 mph 49% 0.00 in FEW
18:00 73.3 °F 51.8 °F 30.28 in WNW 1.0 mph 6.0 mph 47% 0.00 in FEW
18:15 72.4 °F 51.6 °F 30.28 in WNW 1.0 mph 5.0 mph 48% 0.00 in FEW
18:30 72.1 °F 51.9 °F 30.28 in Calm   5.0 mph 49% 0.00 in FEW
18:45 71.7 °F 52.1 °F 30.28 in Calm   2.0 mph 50% 0.00 in FEW
19:00 69.9 °F 52.0 °F 30.29 in Calm   1.0 mph 53% 0.00 in FEW
19:15 68.5 °F 52.7 °F 30.29 in Calm   1.0 mph 57% 0.00 in CLR
19:30 66.8 °F 52.0 °F 30.28 in Calm     59% 0.00 in CLR
19:45 65.3 °F 51.9 °F 30.28 in Calm     62% 0.00 in CLR
20:00 64.2 °F 52.2 °F 30.28 in Calm     65% 0.00 in CLR
20:15 63.7 °F 52.5 °F 30.29 in Calm     67% 0.00 in FEW
20:30 63.3 °F 52.6 °F 30.28 in Calm     68% 0.00 in FEW
20:45 63.2 °F 52.8 °F 30.28 in Calm     69% 0.00 in FEW
21:00 62.6 °F 53.4 °F 30.28 in Calm     72% 0.00 in FEW
21:15 62.2 °F 53.8 °F 30.29 in Calm     74% 0.00 in CLR
21:30 62.3 °F 53.9 °F 30.28 in Calm     74% 0.00 in CLR
21:45 62.7 °F 54.3 °F 30.28 in Calm   1.0 mph 74% 0.00 in CLR
22:00 62.8 °F 54.4 °F 30.27 in Calm   1.0 mph 74% 0.00 in CLR
22:15 62.5 °F 54.5 °F 30.27 in Calm   1.0 mph 75% 0.00 in CLR
22:30 61.8 °F 54.5 °F 30.27 in Calm     77% 0.00 in CLR
22:45 61.2 °F 54.6 °F 30.28 in Calm     79% 0.00 in CLR
23:00 61.4 °F 54.8 °F 30.28 in Calm   1.0 mph 79% 0.00 in CLR
23:15 61.4 °F 54.5 °F 30.28 in Calm   1.0 mph 78% 0.00 in FEW
23:30 60.8 °F 54.6 °F 30.27 in Calm     80% 0.00 in FEW
23:45 60.8 °F 54.9 °F 30.27 in Calm   1.0 mph 81% 0.00 in FEW
TarryTown NY Weather
Compliments of Weather Underground - 1.5 mb